03PA weather

Collegeville Heliport
Collegeville, Pennsylvania, United States

Public forecast

Using degrees Fahrenheit for public forecast. Weather courtesy of forecast.io.

METAR (pilot weather report)

Closest report is Heritage Field, 6.2 nm (11.5 km) NW. Retrieved 2019/07/17 12:54 UTC (45 minutes ago):

KPTW 171254Z AUTO 23004KT 7SM CLR 27/24 A3001 RMK AO2 SLP157 T02670239

TAF (pilot weather forecast)

Closest forecast is Philadelphia International Airport, 20.3 nm (37.6 km) SSE. Retrieved 2019/07/17 12:22 UTC (1 hour ago):

TAF KPHL 171120Z 1712/1818 20006KT P6SM BKN150 FM171400 23007KT P6SM FEW060 SCT250 FM171900 23010KT P6SM FEW060 BKN150 TEMPO 1719/1723 3SM TSRA BR BKN060CB FM172300 22008KT 4SM SHRA BR VCTS BKN060CB BKN150 PROB30 1723/1804 3SM TSRA BKN015CB FM180400 VRB05KT 6SM BR OVC015 FM181000 VRB03KT 2SM BR OVC010 FM181500 26008KT P6SM BKN050